Dugway, Utah
Current Conditions -  °F | °C
As of 4:55 AM on Thursday 27 Nov 2014 (Local Time) from KPVU Reporting Station
Clear Clear  
Wind Chill: 26°   Ceiling: Unl
Heat Index: 32°   Visibility: 10mi
Dew Point: 27°   Wind: 6mph
Humidity: 80%   Direction: 110°ESE
Pressure: 30.38"   Gusts: NA
Location:  40.23°N, 112.75°W
Report Text: KPVU 271155Z 11005KT 10SM CLR 00/M03 A3038 RMK AO1 10020 21020 57007
Loading
Personal Weather Stations






























Interactive Weather Map New forecast layout! Learn more

10-Day Weather Forecast

Advertisements
Track Severe Weather on mobile